createdAt,value
2017-05-09T00:01:00.173Z,1016.45
2017-05-09T00:02:10.451Z,1016.4
2017-05-09T00:03:20.411Z,1016.41
2017-05-09T00:04:30.637Z,1016.42
2017-05-09T00:05:40.619Z,1016.39
2017-05-09T00:06:50.897Z,1016.37
2017-05-09T00:08:01.187Z,1016.38
2017-05-09T00:09:10.851Z,1016.39
2017-05-09T00:10:21.398Z,1016.36
2017-05-09T00:11:31.363Z,1016.4
2017-05-09T00:12:41.645Z,1016.38
2017-05-09T00:13:51.609Z,1016.4
2017-05-09T00:15:01.586Z,1016.37
2017-05-09T00:16:11.801Z,1016.41
2017-05-09T00:17:21.772Z,1016.35
2017-05-09T00:18:32.049Z,1016.39
2017-05-09T00:19:42.345Z,1016.4
2017-05-09T00:20:52.313Z,1016.35
2017-05-09T00:22:02.539Z,1016.34
2017-05-09T00:23:12.813Z,1016.35
2017-05-09T00:24:23.089Z,1016.37
2017-05-09T00:25:33.059Z,1016.31
2017-05-09T00:26:43.332Z,1016.31
2017-05-09T00:27:53.865Z,1016.33
2017-05-09T00:29:04.165Z,1016.3
2017-05-09T00:30:14.142Z,1016.3
2017-05-09T00:31:23.794Z,1016.29
2017-05-09T00:32:34.069Z,1016.26
2017-05-09T00:33:43.975Z,1016.26
2017-05-09T00:34:54.262Z,1016.25
2017-05-09T00:36:04.549Z,1016.27
2017-05-09T00:37:14.514Z,1016.22
2017-05-09T00:38:24.808Z,1016.24
2017-05-09T00:39:35.344Z,1016.23
2017-05-09T00:40:45.322Z,1016.22
2017-05-09T00:41:55.279Z,1016.2
2017-05-09T00:43:05.248Z,1016.18
2017-05-09T00:44:15.214Z,1016.18
2017-05-09T00:45:25.428Z,1016.21
2017-05-09T00:46:35.712Z,1016.21
2017-05-09T00:47:45.677Z,1016.21
2017-05-09T00:48:55.950Z,1016.25
2017-05-09T00:50:05.918Z,1016.23
2017-05-09T00:51:15.894Z,1016.22
2017-05-09T00:52:26.179Z,1016.22
2017-05-09T00:53:36.457Z,1016.23
2017-05-09T00:54:46.747Z,1016.23
2017-05-09T00:55:57.033Z,1016.21
2017-05-09T00:57:07.244Z,1016.22
2017-05-09T00:58:17.523Z,1016.22
2017-05-09T00:59:27.499Z,1016.2
2017-05-09T01:00:37.789Z,1016.19
2017-05-09T01:01:48.070Z,1016.22
2017-05-09T01:02:58.598Z,1016.22
2017-05-09T01:04:08.577Z,1016.2
2017-05-09T01:05:18.859Z,1016.2
2017-05-09T01:06:29.135Z,1016.18
2017-05-09T01:07:39.419Z,1016.19
2017-05-09T01:08:49.655Z,1016.19
2017-05-09T01:09:59.932Z,1016.2
2017-05-09T01:11:10.217Z,1016.18
2017-05-09T01:12:20.508Z,1016.19
2017-05-09T01:13:30.813Z,1016.17
2017-05-09T01:14:41.349Z,1016.18
2017-05-09T01:15:51.640Z,1016.21
2017-05-09T01:17:01.614Z,1016.21
2017-05-09T01:18:11.574Z,1016.17
2017-05-09T01:19:21.543Z,1016.21
2017-05-09T01:20:32.075Z,1016.17
2017-05-09T01:21:41.740Z,1016.17
2017-05-09T01:22:51.405Z,1016.18
2017-05-09T01:24:01.381Z,1016.18
2017-05-09T01:25:11.667Z,1016.17
2017-05-09T01:26:22.227Z,1016.19
2017-05-09T01:27:32.544Z,1016.2
2017-05-09T01:28:42.829Z,1016.2
2017-05-09T01:29:53.105Z,1016.18
2017-05-09T01:31:03.397Z,1016.14
2017-05-09T01:32:13.929Z,1016.11
2017-05-09T01:33:24.208Z,1016.14
2017-05-09T01:34:34.177Z,1016.11
2017-05-09T01:35:44.465Z,1016.15
2017-05-09T01:36:54.116Z,1016.1
2017-05-09T01:38:04.695Z,1016.08
2017-05-09T01:39:14.976Z,1016.12
2017-05-09T01:40:24.942Z,1016.13
2017-05-09T01:41:35.228Z,1016.11
2017-05-09T01:42:45.494Z,1016.1
2017-05-09T01:43:56.082Z,1016.08
2017-05-09T01:45:06.356Z,1016.15
2017-05-09T01:46:16.636Z,1016.13
2017-05-09T01:47:26.917Z,1016.14
2017-05-09T01:48:37.203Z,1016.14
2017-05-09T01:49:47.737Z,1016.12
2017-05-09T01:50:58.045Z,1016.15
2017-05-09T01:52:08.023Z,1016.14
2017-05-09T01:53:18.002Z,1016.11
2017-05-09T01:54:27.661Z,1016.13
2017-05-09T01:55:38.184Z,1016.12
2017-05-09T01:56:48.458Z,1016.11
2017-05-09T01:57:58.730Z,1016.13
2017-05-09T01:59:08.741Z,1016.13
2017-05-09T02:00:18.392Z,1016.14
2017-05-09T02:01:28.921Z,1016.13
2017-05-09T02:02:38.881Z,1016.16
2017-05-09T02:03:49.165Z,1016.14
2017-05-09T02:04:59.446Z,1016.14
2017-05-09T02:06:09.721Z,1016.11
2017-05-09T02:07:20.259Z,1016.13
2017-05-09T02:08:30.536Z,1016.11
2017-05-09T02:09:40.817Z,1016.11
2017-05-09T02:10:51.096Z,1016.07
2017-05-09T02:12:01.056Z,1016.07
2017-05-09T02:13:11.276Z,1016.08
2017-05-09T02:14:21.269Z,1016.09
2017-05-09T02:15:31.558Z,1016.09
2017-05-09T02:16:41.523Z,1016.12
2017-05-09T02:17:51.807Z,1016.12
2017-05-09T02:19:02.330Z,1016.16
2017-05-09T02:20:12.298Z,1016.11
2017-05-09T02:21:22.264Z,1016.13
2017-05-09T02:22:32.545Z,1016.12
2017-05-09T02:23:42.829Z,1016.1
2017-05-09T02:24:53.055Z,1016.1
2017-05-09T02:26:03.054Z,1016.13
2017-05-09T02:27:13.340Z,1016.12
2017-05-09T02:28:23.614Z,1016.11
2017-05-09T02:29:33.898Z,1016.12
2017-05-09T02:30:44.428Z,1016.1
2017-05-09T02:31:54.721Z,1016.06
2017-05-09T02:33:04.994Z,1016.09
2017-05-09T02:34:15.276Z,1016.08
2017-05-09T02:35:25.563Z,1016.12
2017-05-09T02:36:36.093Z,1016.11
2017-05-09T02:37:46.374Z,1016.13
2017-05-09T02:38:56.346Z,1016.11
2017-05-09T02:40:06.000Z,1016.08
2017-05-09T02:41:16.312Z,1016.09
2017-05-09T02:42:26.548Z,1016.09
2017-05-09T02:43:36.827Z,1016.1
2017-05-09T02:44:47.103Z,1016.11
2017-05-09T02:45:57.386Z,1016.08
2017-05-09T02:47:07.350Z,1016.08
2017-05-09T02:48:17.878Z,1016.09
2017-05-09T02:49:28.169Z,1016.04
2017-05-09T02:50:38.137Z,1016.08
2017-05-09T02:51:48.109Z,1016.07
2017-05-09T02:52:58.393Z,1016.08
2017-05-09T02:54:08.625Z,1016.04
2017-05-09T02:55:18.593Z,1016.05
2017-05-09T02:56:28.557Z,1016.03
2017-05-09T02:57:38.829Z,1015.97
2017-05-09T02:58:48.791Z,1016.01
2017-05-09T02:59:59.013Z,1015.97
2017-05-09T03:01:08.990Z,1015.95
2017-05-09T03:02:19.268Z,1015.96
2017-05-09T03:03:29.545Z,1015.95
2017-05-09T03:04:39.820Z,1015.91
2017-05-09T03:05:50.051Z,1015.94
2017-05-09T03:07:00.010Z,1015.9
2017-05-09T03:08:10.292Z,1015.86
2017-05-09T03:09:20.567Z,1015.9
2017-05-09T03:10:30.530Z,1015.86
2017-05-09T03:11:41.063Z,1015.89
2017-05-09T03:12:51.348Z,1015.94
2017-05-09T03:14:01.690Z,1015.94
2017-05-09T03:15:11.966Z,1015.91
2017-05-09T03:16:22.243Z,1015.91
2017-05-09T03:17:32.768Z,1015.92
2017-05-09T03:18:42.743Z,1015.9
2017-05-09T03:19:53.016Z,1015.9
2017-05-09T03:21:03.303Z,1015.92
2017-05-09T03:22:12.962Z,1015.9
2017-05-09T03:23:23.178Z,1015.89
2017-05-09T03:24:33.468Z,1015.93
2017-05-09T03:25:43.748Z,1015.9
2017-05-09T03:26:54.034Z,1015.92
2017-05-09T03:28:04.009Z,1015.89
2017-05-09T03:29:14.566Z,1015.94
2017-05-09T03:30:24.854Z,1015.98
2017-05-09T03:31:35.146Z,1015.93
2017-05-09T03:32:45.113Z,1015.89
2017-05-09T03:33:55.085Z,1015.89
2017-05-09T03:35:05.670Z,1015.9
2017-05-09T03:36:15.650Z,1015.88
2017-05-09T03:37:25.619Z,1015.87
2017-05-09T03:38:35.897Z,1015.86
2017-05-09T03:39:46.178Z,1015.87
2017-05-09T03:40:56.704Z,1015.86
2017-05-09T03:42:06.976Z,1015.83
2017-05-09T03:43:16.949Z,1015.85
2017-05-09T03:44:27.238Z,1015.82
2017-05-09T03:45:37.520Z,1015.82
2017-05-09T03:46:47.741Z,1015.85
2017-05-09T03:47:58.022Z,1015.82
2017-05-09T03:49:08.294Z,1015.79
2017-05-09T03:50:18.260Z,1015.89
2017-05-09T03:51:28.540Z,1015.86
2017-05-09T03:52:39.082Z,1015.87
2017-05-09T03:53:49.370Z,1015.86
2017-05-09T03:54:59.643Z,1015.91
2017-05-09T03:56:09.919Z,1015.86
2017-05-09T03:57:20.199Z,1015.89
2017-05-09T03:58:30.414Z,1015.89
2017-05-09T03:59:40.387Z,1015.85
2017-05-09T04:00:50.663Z,1015.89
2017-05-09T04:02:00.633Z,1015.86
2017-05-09T04:03:10.914Z,1015.87
2017-05-09T04:04:21.434Z,1015.91
2017-05-09T04:05:31.090Z,1015.87
2017-05-09T04:06:41.058Z,1015.87
2017-05-09T04:07:51.025Z,1015.87
2017-05-09T04:09:01.309Z,1015.85
2017-05-09T04:10:11.543Z,1015.89
2017-05-09T04:11:21.826Z,1015.88
2017-05-09T04:12:32.115Z,1015.87
2017-05-09T04:13:42.100Z,1015.88
2017-05-09T04:14:52.068Z,1015.9
2017-05-09T04:16:02.632Z,1015.87
2017-05-09T04:17:12.914Z,1015.84
2017-05-09T04:18:22.899Z,1015.88
2017-05-09T04:19:33.187Z,1015.84
2017-05-09T04:20:43.153Z,1015.86
2017-05-09T04:21:53.066Z,1015.86
2017-05-09T04:23:03.038Z,1015.85
2017-05-09T04:24:13.009Z,1015.85
2017-05-09T04:25:23.289Z,1015.9
2017-05-09T04:26:33.573Z,1015.88
2017-05-09T04:27:44.107Z,1015.87
2017-05-09T04:28:54.394Z,1015.91
2017-05-09T04:30:04.662Z,1015.87
2017-05-09T04:31:14.931Z,1015.87
2017-05-09T04:32:24.623Z,1015.87
2017-05-09T04:33:35.158Z,1015.92
2017-05-09T04:34:45.134Z,1015.89
2017-05-09T04:35:55.413Z,1015.89
2017-05-09T04:37:05.691Z,1015.93
2017-05-09T04:38:16.075Z,1015.9
2017-05-09T04:39:26.607Z,1015.88
2017-05-09T04:40:36.887Z,1015.9
2017-05-09T04:41:46.859Z,1015.87
2017-05-09T04:42:57.137Z,1015.91
2017-05-09T04:44:07.410Z,1015.93
2017-05-09T04:45:17.314Z,1015.94
2017-05-09T04:46:27.286Z,1015.94
2017-05-09T04:47:37.260Z,1015.93
2017-05-09T04:48:47.541Z,1015.96
2017-05-09T04:49:57.825Z,1015.97
2017-05-09T04:51:08.357Z,1015.96
2017-05-09T04:52:18.649Z,1015.99
2017-05-09T04:53:28.922Z,1015.96
2017-05-09T04:54:39.203Z,1015.99
2017-05-09T04:55:49.481Z,1015.99
2017-05-09T04:56:59.077Z,1016.01
2017-05-09T04:58:09.372Z,1015.97
2017-05-09T04:59:19.660Z,1016
2017-05-09T05:00:29.942Z,1015.95
2017-05-09T05:01:40.230Z,1015.95
2017-05-09T05:02:50.760Z,1015.91
2017-05-09T05:04:01.033Z,1015.9
2017-05-09T05:05:11.000Z,1015.91
2017-05-09T05:06:20.962Z,1015.86
2017-05-09T05:07:31.252Z,1015.91
2017-05-09T05:08:41.785Z,1015.9
2017-05-09T05:09:52.073Z,1015.92
2017-05-09T05:11:01.424Z,1015.93
2017-05-09T05:12:11.081Z,1015.9
2017-05-09T05:13:21.359Z,1015.92
2017-05-09T05:14:31.879Z,1015.91
2017-05-09T05:15:41.544Z,1015.91
2017-05-09T05:16:51.820Z,1015.9
2017-05-09T05:18:02.094Z,1015.9
2017-05-09T05:19:12.068Z,1015.93
2017-05-09T05:20:22.622Z,1015.96
2017-05-09T05:21:32.908Z,1015.91
2017-05-09T05:22:43.195Z,1015.93
2017-05-09T05:23:53.597Z,1015.92
2017-05-09T05:25:03.881Z,1015.9
2017-05-09T05:26:14.461Z,1015.95
2017-05-09T05:27:24.433Z,1015.97
2017-05-09T05:28:34.713Z,1015.94
2017-05-09T05:29:44.695Z,1015.94
2017-05-09T05:30:54.986Z,1015.91
2017-05-09T05:32:05.508Z,1015.95
2017-05-09T05:33:15.493Z,1015.96
2017-05-09T05:34:25.462Z,1015.99
2017-05-09T05:35:35.467Z,1015.96
2017-05-09T05:36:45.751Z,1015.94
2017-05-09T05:37:56.312Z,1015.94
2017-05-09T05:39:06.046Z,1015.91
2017-05-09T05:40:16.329Z,1015.94
2017-05-09T05:41:26.614Z,1015.93
2017-05-09T05:42:36.897Z,1015.9
2017-05-09T05:43:47.437Z,1015.85
2017-05-09T05:44:57.719Z,1015.87
2017-05-09T05:46:08.231Z,1015.88
2017-05-09T05:47:18.520Z,1015.83
2017-05-09T05:48:28.788Z,1015.88
2017-05-09T05:49:39.388Z,1015.87
2017-05-09T05:50:49.675Z,1015.84
2017-05-09T05:51:59.956Z,1015.84
2017-05-09T05:53:10.238Z,1015.81
2017-05-09T05:54:20.561Z,1015.78
2017-05-09T05:55:31.107Z,1015.79
2017-05-09T05:56:41.074Z,1015.78
2017-05-09T05:57:51.370Z,1015.75
2017-05-09T05:59:01.667Z,1015.75
2017-05-09T06:00:11.943Z,1015.74
2017-05-09T06:01:22.212Z,1015.75
2017-05-09T06:02:32.494Z,1015.77
2017-05-09T06:03:42.773Z,1015.72
2017-05-09T06:04:52.446Z,1015.75
2017-05-09T06:06:02.740Z,1015.77
2017-05-09T06:07:13.334Z,1015.76
2017-05-09T06:08:23.954Z,1015.76
2017-05-09T06:09:33.940Z,1015.76
2017-05-09T06:10:43.956Z,1015.76
2017-05-09T06:11:54.240Z,1015.76
2017-05-09T06:13:04.808Z,1015.74
2017-05-09T06:14:15.102Z,1015.77
2017-05-09T06:15:25.410Z,1015.72
2017-05-09T06:16:35.396Z,1015.7
2017-05-09T06:17:45.715Z,1015.7
2017-05-09T06:18:55.960Z,1015.7
2017-05-09T06:20:05.949Z,1015.7
2017-05-09T06:21:16.268Z,1015.72
2017-05-09T06:22:26.587Z,1015.69
2017-05-09T06:23:36.875Z,1015.7
2017-05-09T06:24:46.795Z,1015.7
2017-05-09T06:25:57.094Z,1015.69
2017-05-09T06:27:06.773Z,1015.69
2017-05-09T06:28:17.415Z,1015.65
2017-05-09T06:29:27.717Z,1015.69
2017-05-09T06:30:37.953Z,1015.62
2017-05-09T06:31:47.625Z,1015.61
2017-05-09T06:32:57.932Z,1015.6
2017-05-09T06:34:07.613Z,1015.61
2017-05-09T06:35:17.589Z,1015.62
2017-05-09T06:36:28.142Z,1015.59
2017-05-09T06:37:37.808Z,1015.58
2017-05-09T06:38:48.104Z,1015.56
2017-05-09T06:39:58.459Z,1015.59
2017-05-09T06:41:08.759Z,1015.57
2017-05-09T06:42:19.011Z,1015.53
2017-05-09T06:43:29.318Z,1015.56
2017-05-09T06:44:39.656Z,1015.57
2017-05-09T06:45:49.959Z,1015.55
2017-05-09T06:47:00.264Z,1015.55
2017-05-09T06:48:10.499Z,1015.56
2017-05-09T06:49:20.188Z,1015.58
2017-05-09T06:50:30.375Z,1015.59
2017-05-09T06:51:40.448Z,1015.54
2017-05-09T06:52:50.798Z,1015.55
2017-05-09T06:54:01.358Z,1015.55
2017-05-09T06:55:11.663Z,1015.55
2017-05-09T06:56:21.368Z,1015.56
2017-05-09T06:57:31.900Z,1015.55
2017-05-09T06:58:41.898Z,1015.53
2017-05-09T06:59:52.130Z,1015.55
2017-05-09T07:01:02.096Z,1015.55
2017-05-09T07:02:12.379Z,1015.55
2017-05-09T07:03:22.692Z,1015.52
2017-05-09T07:04:32.686Z,1015.56
2017-05-09T07:05:43.237Z,1015.53
2017-05-09T07:06:53.521Z,1015.5
2017-05-09T07:08:03.824Z,1015.52
2017-05-09T07:09:14.158Z,1015.54
2017-05-09T07:10:24.472Z,1015.49
2017-05-09T07:11:35.026Z,1015.51
2017-05-09T07:12:44.702Z,1015.48
2017-05-09T07:13:54.999Z,1015.51
2017-05-09T07:15:04.978Z,1015.45
2017-05-09T07:16:14.655Z,1015.47
2017-05-09T07:17:24.977Z,1015.45
2017-05-09T07:18:35.274Z,1015.47
2017-05-09T07:19:45.573Z,1015.52
2017-05-09T07:20:55.878Z,1015.51
2017-05-09T07:22:06.187Z,1015.54
2017-05-09T07:23:16.758Z,1015.46
2017-05-09T07:24:26.457Z,1015.47
2017-05-09T07:25:36.985Z,1015.42
2017-05-09T07:26:47.288Z,1015.45
2017-05-09T07:27:57.291Z,1015.49
2017-05-09T07:29:07.558Z,1015.41
2017-05-09T07:30:17.839Z,1015.48
2017-05-09T07:31:28.127Z,1015.42
2017-05-09T07:32:38.426Z,1015.42
2017-05-09T07:33:48.724Z,1015.4
2017-05-09T07:34:58.954Z,1015.37
2017-05-09T07:36:09.246Z,1015.32
2017-05-09T07:37:19.525Z,1015.36
2017-05-09T07:38:29.822Z,1015.36
2017-05-09T07:39:39.498Z,1015.34
2017-05-09T07:40:49.743Z,1015.33
2017-05-09T07:41:59.709Z,1015.31
2017-05-09T07:43:09.688Z,1015.35
2017-05-09T07:44:19.657Z,1015.28
2017-05-09T07:45:29.635Z,1015.3
2017-05-09T07:46:40.223Z,1015.32
2017-05-09T07:47:50.504Z,1015.26
2017-05-09T07:49:00.791Z,1015.23
2017-05-09T07:50:11.096Z,1015.23
2017-05-09T07:51:21.390Z,1015.23
2017-05-09T07:52:31.986Z,1015.24
2017-05-09T07:53:42.276Z,1015.24
2017-05-09T07:54:52.261Z,1015.19
2017-05-09T07:56:02.540Z,1015.16
2017-05-09T07:57:12.533Z,1015.18
2017-05-09T07:58:23.088Z,1015.19
2017-05-09T07:59:33.389Z,1015.19
2017-05-09T08:00:43.360Z,1015.2
2017-05-09T08:01:53.661Z,1015.26
2017-05-09T08:03:03.957Z,1015.2
2017-05-09T08:04:14.519Z,1015.2
2017-05-09T08:05:24.802Z,1015.22
2017-05-09T08:06:34.862Z,1015.2
2017-05-09T08:07:45.176Z,1015.17
2017-05-09T08:08:54.842Z,1015.15
2017-05-09T08:10:05.391Z,1015.19
2017-05-09T08:11:15.393Z,1015.17
2017-05-09T08:12:25.376Z,1015.16
2017-05-09T08:13:35.716Z,1015.14
2017-05-09T08:14:46.019Z,1015.1
2017-05-09T08:15:56.554Z,1015.12
2017-05-09T08:17:06.527Z,1015.09
2017-05-09T08:18:16.197Z,1015.09
2017-05-09T08:19:26.494Z,1015.06
2017-05-09T08:20:36.487Z,1015.05
2017-05-09T08:21:47.041Z,1015.03
2017-05-09T08:22:57.332Z,1015.03
2017-05-09T08:24:07.013Z,1014.99
2017-05-09T08:25:17.334Z,1014.98
2017-05-09T08:26:27.341Z,1015.02
2017-05-09T08:27:37.588Z,1015.02
2017-05-09T08:28:47.577Z,1015.02
2017-05-09T08:29:57.561Z,1015.05
2017-05-09T08:31:07.227Z,1015.05
2017-05-09T08:32:17.215Z,1015.07
2017-05-09T08:33:27.134Z,1015.08
2017-05-09T08:34:37.432Z,1015.04
2017-05-09T08:35:47.404Z,1015.03
2017-05-09T08:36:57.383Z,1015.03
2017-05-09T08:38:07.728Z,1015.02
2017-05-09T08:39:18.259Z,1015.01
2017-05-09T08:40:28.564Z,1015.02
2017-05-09T08:41:38.851Z,1015.06
2017-05-09T08:42:48.821Z,1015.02
2017-05-09T08:43:58.823Z,1015.03
2017-05-09T08:45:09.390Z,1014.99
2017-05-09T08:46:19.363Z,1015.01
2017-05-09T08:47:29.657Z,1015.01
2017-05-09T08:48:39.337Z,1015.02
2017-05-09T08:49:49.323Z,1014.99
2017-05-09T08:50:59.882Z,1014.98
2017-05-09T08:52:10.188Z,1014.97
2017-05-09T08:53:20.501Z,1014.97
2017-05-09T08:54:30.791Z,1014.96
2017-05-09T08:55:41.295Z,1014.97
2017-05-09T08:56:51.835Z,1014.93
2017-05-09T08:58:01.840Z,1014.89
2017-05-09T08:59:11.830Z,1014.91
2017-05-09T09:00:22.128Z,1014.9
2017-05-09T09:01:32.426Z,1014.89
2017-05-09T09:02:42.983Z,1014.88
2017-05-09T09:03:53.280Z,1014.81
2017-05-09T09:05:03.567Z,1014.79
2017-05-09T09:06:13.243Z,1014.7
2017-05-09T09:07:22.909Z,1014.76
2017-05-09T09:08:33.463Z,1014.71
2017-05-09T09:09:43.454Z,1014.69
2017-05-09T09:10:53.754Z,1014.64
2017-05-09T09:12:04.066Z,1014.66
2017-05-09T09:13:14.354Z,1014.65
2017-05-09T09:14:24.588Z,1014.64
2017-05-09T09:15:34.878Z,1014.62
2017-05-09T09:16:45.181Z,1014.64
2017-05-09T09:17:55.465Z,1014.64
2017-05-09T09:19:05.441Z,1014.62
2017-05-09T09:20:15.674Z,1014.62
2017-05-09T09:21:25.993Z,1014.61
2017-05-09T09:22:36.283Z,1014.59
2017-05-09T09:23:46.580Z,1014.57
2017-05-09T09:24:56.877Z,1014.61
2017-05-09T09:26:07.429Z,1014.61
2017-05-09T09:27:17.731Z,1014.62
2017-05-09T09:28:28.270Z,1014.57
2017-05-09T09:29:38.265Z,1014.54
2017-05-09T09:30:48.560Z,1014.54
2017-05-09T09:31:59.102Z,1014.53
2017-05-09T09:33:09.383Z,1014.57
2017-05-09T09:34:19.671Z,1014.6
2017-05-09T09:35:30.005Z,1014.58
2017-05-09T09:36:39.993Z,1014.69
2017-05-09T09:37:50.674Z,1014.74
2017-05-09T09:39:01.052Z,1014.71
2017-05-09T09:40:11.108Z,1014.81
2017-05-09T09:41:21.518Z,1014.86
2017-05-09T09:42:31.629Z,1014.93
2017-05-09T09:43:42.299Z,1014.9
2017-05-09T09:44:52.649Z,1014.89
2017-05-09T09:46:02.673Z,1014.88
2017-05-09T09:47:12.689Z,1014.87
2017-05-09T09:48:23.020Z,1014.8
2017-05-09T09:49:33.300Z,1014.82
2017-05-09T09:50:43.574Z,1014.79
2017-05-09T09:51:53.552Z,1014.76
2017-05-09T09:53:03.241Z,1014.77
2017-05-09T09:54:13.564Z,1014.75
2017-05-09T09:55:24.104Z,1014.77
2017-05-09T09:56:34.432Z,1014.73
2017-05-09T09:57:44.751Z,1014.73
2017-05-09T09:58:55.050Z,1014.73
2017-05-09T10:00:05.355Z,1014.69
2017-05-09T10:01:15.586Z,1014.7
2017-05-09T10:02:25.878Z,1014.68
2017-05-09T10:03:36.168Z,1014.66
2017-05-09T10:04:46.469Z,1014.63
2017-05-09T10:05:56.785Z,1014.61
2017-05-09T10:07:07.339Z,1014.63
2017-05-09T10:08:17.311Z,1014.61
2017-05-09T10:09:27.597Z,1014.56
2017-05-09T10:10:37.657Z,1014.54
2017-05-09T10:11:47.637Z,1014.5
2017-05-09T10:12:58.173Z,1014.49
2017-05-09T10:14:08.145Z,1014.49
2017-05-09T10:15:18.141Z,1014.47
2017-05-09T10:16:28.494Z,1014.44
2017-05-09T10:17:38.775Z,1014.48
2017-05-09T10:18:49.340Z,1014.44
2017-05-09T10:19:59.635Z,1014.44
2017-05-09T10:21:09.936Z,1014.46
2017-05-09T10:22:20.223Z,1014.43
2017-05-09T10:23:30.549Z,1014.42
2017-05-09T10:24:41.256Z,1014.42
2017-05-09T10:25:51.705Z,1014.39
2017-05-09T10:27:01.706Z,1014.36
2017-05-09T10:28:12.034Z,1014.32
2017-05-09T10:29:22.406Z,1014.27
2017-05-09T10:30:32.744Z,1014.23
2017-05-09T10:31:43.326Z,1014.24
2017-05-09T10:32:53.700Z,1014.24
2017-05-09T10:34:04.067Z,1014.2
2017-05-09T10:35:13.783Z,1014.23
2017-05-09T10:36:24.405Z,1014.21
2017-05-09T10:37:34.749Z,1014.24
2017-05-09T10:38:45.085Z,1014.18
2017-05-09T10:39:55.432Z,1014.21
2017-05-09T10:41:05.450Z,1014.2
2017-05-09T10:42:16.069Z,1014.11
2017-05-09T10:43:26.420Z,1014.18
2017-05-09T10:44:36.804Z,1014.11
2017-05-09T10:45:47.160Z,1014.1
2017-05-09T10:46:57.524Z,1014.14
2017-05-09T10:48:08.136Z,1014.15
2017-05-09T10:49:18.525Z,1014.14
2017-05-09T10:50:28.561Z,1014.16
2017-05-09T10:51:38.601Z,1014.11
2017-05-09T10:52:49.033Z,1014.16
2017-05-09T10:53:59.682Z,1014.16
2017-05-09T10:55:09.981Z,1014.16
2017-05-09T10:56:19.357Z,1014.13
2017-05-09T10:57:29.643Z,1014.13
2017-05-09T10:58:39.621Z,1014.15
2017-05-09T10:59:49.869Z,1014.11
2017-05-09T11:01:00.190Z,1014.15
2017-05-09T11:02:10.161Z,1014.12
2017-05-09T11:03:20.451Z,1014.08
2017-05-09T11:04:30.980Z,1014.04
2017-05-09T11:05:41.534Z,1014.03
2017-05-09T11:06:51.823Z,1014.05
2017-05-09T11:08:02.107Z,1014.02
2017-05-09T11:09:12.122Z,1014.01
2017-05-09T11:10:22.485Z,1013.96
2017-05-09T11:11:32.763Z,1013.97
2017-05-09T11:12:42.989Z,1013.95
2017-05-09T11:13:53.318Z,1013.99
2017-05-09T11:15:03.644Z,1014.03
2017-05-09T11:16:13.976Z,1014.07
2017-05-09T11:17:24.533Z,1014.04
2017-05-09T11:18:34.848Z,1013.97
2017-05-09T11:19:45.138Z,1014.02
2017-05-09T11:20:54.858Z,1014.07
2017-05-09T11:22:05.168Z,1014.03
2017-05-09T11:23:15.419Z,1014
2017-05-09T11:24:25.413Z,1014.05
2017-05-09T11:25:35.689Z,1014.08
2017-05-09T11:26:45.987Z,1014.05
2017-05-09T11:27:56.270Z,1014.04
2017-05-09T11:29:06.816Z,1014.03
2017-05-09T11:30:16.815Z,1014.03
2017-05-09T11:31:27.142Z,1014.02
2017-05-09T11:32:37.121Z,1014.02
2017-05-09T11:33:47.438Z,1014.02
2017-05-09T11:34:58.035Z,1014.03
2017-05-09T11:36:08.360Z,1013.99
2017-05-09T11:37:18.673Z,1014
2017-05-09T11:38:28.963Z,1014.03
2017-05-09T11:39:39.255Z,1014.04
2017-05-09T11:40:49.797Z,1014.03
2017-05-09T11:42:00.130Z,1014.01
2017-05-09T11:43:09.793Z,1013.99
2017-05-09T11:44:20.086Z,1013.95
2017-05-09T11:45:29.979Z,1013.97
2017-05-09T11:46:40.521Z,1013.96
2017-05-09T11:47:50.519Z,1013.97
2017-05-09T11:49:00.793Z,1014.01
2017-05-09T11:50:11.287Z,1014.02
2017-05-09T11:51:21.572Z,1013.99
2017-05-09T11:52:32.107Z,1013.98
2017-05-09T11:53:42.403Z,1014.02
2017-05-09T11:54:52.746Z,1014.06
2017-05-09T11:56:03.051Z,1014.01
2017-05-09T11:57:13.334Z,1014.02
2017-05-09T11:58:23.910Z,1013.98
2017-05-09T11:59:33.885Z,1014.03
2017-05-09T12:00:43.885Z,1014.06
2017-05-09T12:01:54.179Z,1014.03
2017-05-09T12:03:04.489Z,1014.04
2017-05-09T12:04:14.705Z,1014.03
2017-05-09T12:05:24.368Z,1014.02
2017-05-09T12:06:34.348Z,1014.02
2017-05-09T12:07:44.660Z,1014.02
2017-05-09T12:08:54.629Z,1013.96
2017-05-09T12:10:05.413Z,1013.96
2017-05-09T12:11:15.708Z,1013.93
2017-05-09T12:12:26.007Z,1013.9
2017-05-09T12:13:36.040Z,1013.96
2017-05-09T12:14:46.333Z,1013.94
2017-05-09T12:15:56.598Z,1013.87
2017-05-09T12:17:06.592Z,1013.89
2017-05-09T12:18:16.874Z,1013.89
2017-05-09T12:19:27.172Z,1013.91
2017-05-09T12:20:37.484Z,1013.86
2017-05-09T12:21:48.046Z,1013.86
2017-05-09T12:22:58.011Z,1013.85
2017-05-09T12:24:07.982Z,1013.86
2017-05-09T12:25:17.962Z,1013.8
2017-05-09T12:26:27.957Z,1013.75
2017-05-09T12:27:38.508Z,1013.78
2017-05-09T12:28:48.529Z,1013.76
2017-05-09T12:29:58.835Z,1013.77
2017-05-09T12:31:09.142Z,1013.76
2017-05-09T12:32:19.444Z,1013.75
2017-05-09T12:33:29.995Z,1013.75
2017-05-09T12:34:40.015Z,1013.73
2017-05-09T12:35:50.328Z,1013.71
2017-05-09T12:37:00.622Z,1013.74
2017-05-09T12:38:10.621Z,1013.67
2017-05-09T12:39:20.872Z,1013.66
2017-05-09T12:40:31.183Z,1013.65
2017-05-09T12:41:41.167Z,1013.65
2017-05-09T12:42:51.488Z,1013.68
2017-05-09T12:44:01.486Z,1013.64
2017-05-09T12:45:12.051Z,1013.66
2017-05-09T12:46:22.351Z,1013.67
2017-05-09T12:47:32.656Z,1013.65
2017-05-09T12:48:42.971Z,1013.71
2017-05-09T12:49:52.662Z,1013.67
2017-05-09T12:51:02.896Z,1013.71
2017-05-09T12:52:12.882Z,1013.67
2017-05-09T12:53:23.170Z,1013.68
2017-05-09T12:54:33.467Z,1013.7
2017-05-09T12:55:43.760Z,1013.73
2017-05-09T12:56:54.349Z,1013.72
2017-05-09T12:58:04.661Z,1013.67
2017-05-09T12:59:15.023Z,1013.67
2017-05-09T13:00:25.340Z,1013.67
2017-05-09T13:01:35.641Z,1013.65
2017-05-09T13:02:46.178Z,1013.63
2017-05-09T13:03:56.508Z,1013.63
2017-05-09T13:05:06.802Z,1013.67
2017-05-09T13:06:16.801Z,1013.64
2017-05-09T13:07:26.788Z,1013.66
2017-05-09T13:08:37.321Z,1013.63
2017-05-09T13:09:47.604Z,1013.65
2017-05-09T13:10:57.895Z,1013.62
2017-05-09T13:12:07.878Z,1013.6
2017-05-09T13:13:18.174Z,1013.6
2017-05-09T13:14:28.726Z,1013.58
2017-05-09T13:15:38.694Z,1013.56
2017-05-09T13:16:48.983Z,1013.53
2017-05-09T13:17:59.303Z,1013.53
2017-05-09T13:19:09.592Z,1013.48
2017-05-09T13:20:19.827Z,1013.48
2017-05-09T13:21:29.808Z,1013.47
2017-05-09T13:22:40.100Z,1013.43
2017-05-09T13:23:50.396Z,1013.42
2017-05-09T13:25:00.669Z,1013.45
2017-05-09T13:26:11.213Z,1013.48
2017-05-09T13:27:21.547Z,1013.45
2017-05-09T13:28:31.838Z,1013.47
2017-05-09T13:29:42.136Z,1013.43
2017-05-09T13:30:52.128Z,1013.42
2017-05-09T13:32:02.683Z,1013.44
2017-05-09T13:33:12.971Z,1013.42
2017-05-09T13:34:23.279Z,1013.42
2017-05-09T13:35:33.251Z,1013.46
2017-05-09T13:36:43.548Z,1013.47
2017-05-09T13:37:53.784Z,1013.43
2017-05-09T13:39:04.086Z,1013.41
2017-05-09T13:40:14.362Z,1013.4
2017-05-09T13:41:24.657Z,1013.42
2017-05-09T13:42:34.337Z,1013.39
2017-05-09T13:43:44.553Z,1013.41
2017-05-09T13:44:54.837Z,1013.41
2017-05-09T13:46:04.825Z,1013.38
2017-05-09T13:47:15.131Z,1013.39
2017-05-09T13:48:25.097Z,1013.38
2017-05-09T13:49:35.377Z,1013.37
2017-05-09T13:50:45.657Z,1013.33
2017-05-09T13:51:55.628Z,1013.39
2017-05-09T13:53:05.905Z,1013.32
2017-05-09T13:54:15.879Z,1013.3
2017-05-09T13:55:26.424Z,1013.32
2017-05-09T13:56:36.387Z,1013.28
2017-05-09T13:57:46.681Z,1013.29
2017-05-09T13:58:56.971Z,1013.31
2017-05-09T14:00:06.954Z,1013.29
2017-05-09T14:01:16.861Z,1013.28
2017-05-09T14:02:26.830Z,1013.24
2017-05-09T14:03:37.123Z,1013.23
2017-05-09T14:04:47.117Z,1013.2
2017-05-09T14:05:57.436Z,1013.23
2017-05-09T14:07:07.349Z,1013.21
2017-05-09T14:08:17.632Z,1013.17
2017-05-09T14:09:27.919Z,1013.19
2017-05-09T14:10:38.210Z,1013.12
2017-05-09T14:11:48.228Z,1013.11
2017-05-09T14:12:58.775Z,1013.14